createdAt,value
2022-07-27T00:01:25.584Z,23.53
2022-07-27T00:03:52.188Z,23.50
2022-07-27T00:06:18.791Z,23.48
2022-07-27T00:08:45.475Z,23.44
2022-07-27T00:11:12.374Z,23.42
2022-07-27T00:13:39.167Z,23.40
2022-07-27T00:16:06.778Z,23.38
2022-07-27T00:18:33.414Z,23.38
2022-07-27T00:21:00.197Z,23.37
2022-07-27T00:23:26.763Z,23.33
2022-07-27T00:25:53.442Z,23.31
2022-07-27T00:28:20.202Z,23.29
2022-07-27T00:30:46.858Z,23.28
2022-07-27T00:33:17.188Z,23.25
2022-07-27T00:35:44.426Z,23.25
2022-07-27T00:38:10.904Z,23.24
2022-07-27T00:40:37.596Z,23.22
2022-07-27T00:43:04.203Z,23.21
2022-07-27T00:45:30.929Z,23.21
2022-07-27T00:47:57.497Z,23.20
2022-07-27T00:50:24.950Z,23.21
2022-07-27T00:52:51.911Z,23.19
2022-07-27T00:55:18.478Z,23.18
2022-07-27T00:57:58.384Z,23.18
2022-07-27T01:00:29.167Z,23.16
2022-07-27T01:02:57.652Z,23.14
2022-07-27T01:05:35.935Z,23.14
2022-07-27T01:08:03.346Z,23.14
2022-07-27T01:10:29.888Z,23.14
2022-07-27T01:12:56.582Z,23.12
2022-07-27T01:15:23.118Z,23.12
2022-07-27T01:17:49.651Z,23.12
2022-07-27T01:20:16.185Z,23.11
2022-07-27T01:22:42.815Z,23.12
2022-07-27T01:25:10.218Z,23.13
2022-07-27T01:27:36.988Z,23.14
2022-07-27T01:30:25.160Z,23.13
2022-07-27T01:32:52.412Z,23.14
2022-07-27T01:35:19.087Z,23.12
2022-07-27T01:37:48.135Z,23.12
2022-07-27T01:40:14.945Z,23.13
2022-07-27T01:42:41.737Z,23.11
2022-07-27T01:45:09.070Z,23.08
2022-07-27T01:47:35.604Z,23.07
2022-07-27T01:50:02.226Z,23.06
2022-07-27T01:52:29.037Z,23.05
2022-07-27T01:54:55.504Z,23.02
2022-07-27T01:57:22.059Z,22.99
2022-07-27T01:59:48.768Z,22.95
2022-07-27T02:02:16.216Z,22.94
2022-07-27T02:04:42.958Z,22.92
2022-07-27T02:07:09.506Z,22.90
2022-07-27T02:09:36.048Z,22.90
2022-07-27T02:12:21.679Z,22.88
2022-07-27T02:14:48.248Z,22.86
2022-07-27T02:17:14.774Z,22.84
2022-07-27T02:19:41.790Z,22.80
2022-07-27T02:22:08.948Z,22.78
2022-07-27T02:24:37.803Z,22.76
2022-07-27T02:27:04.511Z,22.74
2022-07-27T02:29:31.109Z,22.71
2022-07-27T02:31:57.647Z,22.69
2022-07-27T02:34:24.132Z,22.65
2022-07-27T02:36:50.631Z,22.62
2022-07-27T02:39:17.130Z,22.56
2022-07-27T02:41:46.384Z,22.52
2022-07-27T02:44:14.611Z,22.47
2022-07-27T02:46:41.750Z,22.43
2022-07-27T02:49:08.827Z,22.38
2022-07-27T02:51:36.245Z,22.34
2022-07-27T02:54:06.026Z,22.28
2022-07-27T02:56:32.561Z,22.23
2022-07-27T02:58:59.054Z,22.19
2022-07-27T03:01:25.614Z,22.15
2022-07-27T03:03:52.536Z,22.10
2022-07-27T03:06:19.041Z,22.06
2022-07-27T03:08:45.554Z,22.02
2022-07-27T03:11:12.067Z,21.99
2022-07-27T03:13:38.600Z,21.96
2022-07-27T03:16:05.289Z,21.94
2022-07-27T03:18:31.843Z,21.92
2022-07-27T03:20:58.434Z,21.93
2022-07-27T03:23:25.100Z,21.93
2022-07-27T03:25:51.563Z,21.94
2022-07-27T03:28:18.068Z,21.95
2022-07-27T03:30:44.632Z,21.97
2022-07-27T03:33:11.188Z,21.98
2022-07-27T03:35:37.716Z,21.99
2022-07-27T03:38:04.273Z,22.01
2022-07-27T03:40:32.855Z,22.01
2022-07-27T03:43:00.011Z,22.01
2022-07-27T03:45:26.951Z,22.01
2022-07-27T03:47:53.533Z,22.02
2022-07-27T03:50:20.415Z,22.02
2022-07-27T03:52:46.935Z,22.01
2022-07-27T03:55:13.458Z,22.00
2022-07-27T03:57:40.134Z,21.99
2022-07-27T04:00:08.741Z,21.98
2022-07-27T04:02:35.233Z,21.97
2022-07-27T04:05:01.805Z,21.99
2022-07-27T04:07:28.790Z,21.95
2022-07-27T04:09:55.312Z,21.91
2022-07-27T04:12:21.809Z,21.88
2022-07-27T04:14:48.567Z,21.83
2022-07-27T04:17:56.470Z,21.78
2022-07-27T04:20:01.778Z,21.73
2022-07-27T04:22:28.385Z,21.71
2022-07-27T04:24:54.915Z,21.66
2022-07-27T04:27:21.814Z,21.62
2022-07-27T04:29:48.349Z,21.59
2022-07-27T04:32:14.916Z,21.55
2022-07-27T04:34:41.445Z,21.55
2022-07-27T04:37:07.940Z,21.51
2022-07-27T04:39:34.447Z,21.50
2022-07-27T04:42:01.059Z,21.51
2022-07-27T04:44:27.590Z,21.51
2022-07-27T04:46:54.075Z,21.53
2022-07-27T04:49:20.743Z,21.53
2022-07-27T04:51:47.308Z,21.53
2022-07-27T04:54:13.930Z,21.58
2022-07-27T04:56:40.477Z,21.59
2022-07-27T04:59:07.034Z,21.58
2022-07-27T05:01:35.453Z,21.59
2022-07-27T05:04:04.035Z,21.61
2022-07-27T05:06:30.878Z,21.66
2022-07-27T05:08:57.408Z,21.69
2022-07-27T05:11:23.908Z,21.68
2022-07-27T05:13:50.576Z,21.72
2022-07-27T05:16:17.193Z,21.75
2022-07-27T05:18:45.184Z,21.78
2022-07-27T05:21:11.863Z,21.84
2022-07-27T05:23:38.394Z,21.88
2022-07-27T05:26:04.950Z,21.91
2022-07-27T05:28:31.534Z,21.95
2022-07-27T05:30:58.052Z,21.96
2022-07-27T05:33:25.646Z,21.96
2022-07-27T05:35:52.474Z,21.96
2022-07-27T05:38:18.960Z,21.98
2022-07-27T05:40:46.606Z,21.97
2022-07-27T05:43:13.419Z,21.99
2022-07-27T05:45:40.150Z,22.01
2022-07-27T05:48:06.777Z,22.02
2022-07-27T05:50:33.291Z,22.04
2022-07-27T05:53:00.641Z,22.10
2022-07-27T05:55:27.275Z,22.13
2022-07-27T05:57:53.825Z,22.16
2022-07-27T06:00:20.666Z,22.18
2022-07-27T06:02:47.183Z,22.21
2022-07-27T06:05:17.535Z,22.23
2022-07-27T06:08:00.014Z,22.26
2022-07-27T06:10:28.620Z,22.31
2022-07-27T06:12:55.235Z,22.36
2022-07-27T06:15:23.097Z,22.39
2022-07-27T06:17:52.648Z,22.42
2022-07-27T06:20:20.631Z,22.45
2022-07-27T06:22:49.601Z,22.48
2022-07-27T06:25:17.367Z,22.49
2022-07-27T06:27:44.835Z,22.50
2022-07-27T06:30:13.117Z,22.50
2022-07-27T06:32:39.695Z,22.48
2022-07-27T06:35:10.646Z,22.51
2022-07-27T06:37:43.986Z,22.55
2022-07-27T06:40:14.501Z,22.60
2022-07-27T06:42:41.694Z,22.68
2022-07-27T06:45:09.325Z,22.75
2022-07-27T06:47:36.798Z,22.82
2022-07-27T06:50:16.217Z,22.90
2022-07-27T06:52:42.783Z,22.96
2022-07-27T06:55:09.583Z,23.01
2022-07-27T06:57:36.085Z,23.06
2022-07-27T07:00:02.704Z,23.09
2022-07-27T07:02:29.233Z,23.13
2022-07-27T07:04:55.718Z,23.16
2022-07-27T07:07:22.798Z,23.19
2022-07-27T07:09:49.342Z,23.19
2022-07-27T07:12:15.976Z,23.23
2022-07-27T07:14:42.662Z,23.29
2022-07-27T07:17:09.160Z,23.33
2022-07-27T07:19:35.672Z,23.41
2022-07-27T07:22:02.203Z,23.48
2022-07-27T07:24:30.160Z,23.54
2022-07-27T07:26:56.719Z,23.61
2022-07-27T07:29:23.226Z,23.67
2022-07-27T07:31:49.753Z,23.72
2022-07-27T07:34:16.339Z,23.79
2022-07-27T07:36:43.137Z,23.83
2022-07-27T07:39:09.787Z,23.87
2022-07-27T07:41:37.500Z,23.88
2022-07-27T07:44:04.235Z,23.89
2022-07-27T07:46:31.134Z,23.93
2022-07-27T07:48:57.722Z,24.04
2022-07-27T07:51:24.279Z,24.26
2022-07-27T07:53:50.776Z,24.60
2022-07-27T07:56:17.567Z,24.99
2022-07-27T07:58:44.066Z,25.32
2022-07-27T08:01:12.285Z,25.60
2022-07-27T08:03:48.701Z,25.88
2022-07-27T08:06:17.604Z,26.21
2022-07-27T08:08:44.189Z,26.48
2022-07-27T08:11:10.803Z,26.79
2022-07-27T08:13:37.422Z,27.15
2022-07-27T08:16:04.297Z,27.54
2022-07-27T08:18:31.046Z,27.90
2022-07-27T08:20:57.674Z,28.22
2022-07-27T08:23:24.175Z,28.51
2022-07-27T08:25:50.689Z,28.76
2022-07-27T08:28:17.207Z,28.98
2022-07-27T08:30:44.793Z,29.24
2022-07-27T08:33:11.617Z,29.47
2022-07-27T08:35:38.402Z,29.70
2022-07-27T08:38:07.399Z,29.74
2022-07-27T08:40:44.346Z,29.64
2022-07-27T08:43:18.935Z,29.39
2022-07-27T08:45:57.171Z,29.03
2022-07-27T08:48:30.659Z,28.68
2022-07-27T08:50:57.639Z,28.37
2022-07-27T08:53:24.667Z,28.07
2022-07-27T08:55:51.287Z,27.79
2022-07-27T08:58:17.969Z,27.58
2022-07-27T09:00:49.853Z,27.35
2022-07-27T09:03:20.954Z,27.17
2022-07-27T09:05:53.574Z,26.97
2022-07-27T09:08:26.409Z,26.83
2022-07-27T09:10:55.309Z,26.71
2022-07-27T09:13:29.377Z,26.60
2022-07-27T09:18:45.824Z,26.41
2022-07-27T09:21:30.559Z,26.30
2022-07-27T09:24:45.632Z,26.26
2022-07-27T09:27:04.233Z,26.28
2022-07-27T09:29:35.098Z,26.30
2022-07-27T09:32:14.672Z,26.35
2022-07-27T09:34:41.217Z,26.49
2022-07-27T09:37:08.728Z,26.64
2022-07-27T09:39:35.258Z,26.76
2022-07-27T09:42:02.791Z,26.86
2022-07-27T09:44:43.168Z,26.92
2022-07-27T09:47:28.903Z,26.99
2022-07-27T09:49:58.121Z,27.09
2022-07-27T09:52:26.145Z,27.15
2022-07-27T09:54:53.415Z,27.24
2022-07-27T09:57:20.263Z,27.29
2022-07-27T09:59:47.115Z,27.34
2022-07-27T10:02:14.445Z,27.34
2022-07-27T10:04:41.572Z,27.31
2022-07-27T10:07:12.718Z,27.24
2022-07-27T10:09:40.025Z,27.17
2022-07-27T10:12:06.876Z,27.08
2022-07-27T10:14:33.522Z,27.01
2022-07-27T10:17:00.592Z,26.96
2022-07-27T10:19:41.274Z,26.88
2022-07-27T10:22:07.816Z,26.85
2022-07-27T10:24:37.168Z,26.80
2022-07-27T10:27:27.969Z,26.73
2022-07-27T10:29:55.723Z,26.80
2022-07-27T10:32:35.251Z,26.86
2022-07-27T10:35:02.040Z,26.97
2022-07-27T10:37:31.161Z,26.98
2022-07-27T10:40:25.928Z,27.02
2022-07-27T10:43:07.769Z,27.00
2022-07-27T10:45:52.640Z,27.01
2022-07-27T10:48:47.708Z,26.97
2022-07-27T10:51:18.572Z,26.96
2022-07-27T10:56:49.128Z,26.86
2022-07-27T11:00:06.241Z,26.84
2022-07-27T11:02:43.313Z,26.82
2022-07-27T11:05:42.603Z,26.84
2022-07-27T11:08:35.554Z,26.81
2022-07-27T11:10:47.565Z,26.77
2022-07-27T11:13:14.497Z,26.70
2022-07-27T11:15:55.980Z,26.62
2022-07-27T11:18:28.369Z,26.64
2022-07-27T11:21:14.826Z,26.68
2022-07-27T11:23:50.898Z,26.74
2022-07-27T11:26:18.333Z,26.74
2022-07-27T11:28:45.146Z,26.77
2022-07-27T11:31:15.163Z,26.79
2022-07-27T11:34:00.735Z,26.82
2022-07-27T11:36:50.057Z,26.86
2022-07-27T11:39:54.409Z,26.95
2022-07-27T11:42:12.526Z,27.05
2022-07-27T11:44:46.216Z,27.13
2022-07-27T11:47:17.537Z,27.18
2022-07-27T11:49:44.201Z,27.26
2022-07-27T11:52:10.944Z,27.33
2022-07-27T11:54:42.009Z,27.37
2022-07-27T11:57:15.642Z,27.44
2022-07-27T11:59:44.317Z,27.48
2022-07-27T12:02:20.288Z,27.48
2022-07-27T12:04:49.275Z,27.50
2022-07-27T12:07:18.809Z,27.50
2022-07-27T12:09:46.593Z,27.49
2022-07-27T12:12:21.546Z,27.48
2022-07-27T12:14:52.156Z,27.50
2022-07-27T12:17:25.650Z,27.50
2022-07-27T12:19:55.256Z,27.52
2022-07-27T12:22:43.581Z,27.51
2022-07-27T12:25:16.538Z,27.62
2022-07-27T12:27:59.799Z,27.65
2022-07-27T12:30:34.536Z,27.68
2022-07-27T12:33:03.125Z,27.75
2022-07-27T12:35:36.242Z,27.81
2022-07-27T12:38:08.807Z,27.91
2022-07-27T12:40:44.423Z,27.93
2022-07-27T12:43:16.149Z,28.00
2022-07-27T12:45:43.242Z,28.05
2022-07-27T12:48:27.624Z,28.04
2022-07-27T12:51:22.086Z,28.04
2022-07-27T12:53:48.594Z,28.03
2022-07-27T12:56:15.142Z,27.94
2022-07-27T12:59:01.388Z,27.82
2022-07-27T13:01:28.128Z,27.76
2022-07-27T13:03:54.739Z,27.66
2022-07-27T13:06:21.371Z,27.56
2022-07-27T13:08:48.111Z,27.48
2022-07-27T13:11:14.775Z,27.40
2022-07-27T13:13:41.305Z,27.37
2022-07-27T13:16:07.886Z,27.38
2022-07-27T13:18:34.442Z,27.43
2022-07-27T13:21:01.600Z,27.50
2022-07-27T13:23:28.865Z,27.59
2022-07-27T13:25:55.382Z,27.66
2022-07-27T13:28:22.317Z,27.74
2022-07-27T13:30:49.174Z,27.79
2022-07-27T13:33:15.727Z,27.83
2022-07-27T13:35:42.901Z,27.85
2022-07-27T13:38:14.534Z,27.87
2022-07-27T13:40:45.144Z,27.86
2022-07-27T13:43:12.345Z,27.85
2022-07-27T13:45:42.781Z,27.84
2022-07-27T13:48:11.909Z,27.81
2022-07-27T13:50:39.924Z,27.78
2022-07-27T13:53:06.479Z,27.75
2022-07-27T13:55:34.356Z,27.70
2022-07-27T13:58:00.878Z,27.63
2022-07-27T14:00:27.409Z,27.54
2022-07-27T14:02:53.992Z,27.44
2022-07-27T14:05:20.769Z,27.31
2022-07-27T14:07:47.257Z,27.22
2022-07-27T14:10:32.229Z,27.14
2022-07-27T14:13:08.242Z,27.08
2022-07-27T14:15:54.355Z,27.08
2022-07-27T14:18:26.741Z,27.06
2022-07-27T14:20:54.648Z,27.07
2022-07-27T14:23:21.274Z,27.07
2022-07-27T14:25:47.915Z,27.07
2022-07-27T14:28:14.648Z,27.06
2022-07-27T14:30:41.258Z,27.06
2022-07-27T14:33:07.740Z,27.06
2022-07-27T14:35:39.929Z,27.05
2022-07-27T14:38:08.504Z,27.03
2022-07-27T14:40:35.312Z,27.03
2022-07-27T14:43:01.846Z,27.01
2022-07-27T14:45:44.554Z,27.05
2022-07-27T14:48:23.024Z,27.13
2022-07-27T14:50:55.172Z,27.26
2022-07-27T14:53:21.764Z,27.39
2022-07-27T14:55:48.358Z,27.53
2022-07-27T14:58:14.883Z,27.66
2022-07-27T15:00:41.488Z,27.78
2022-07-27T15:03:08.133Z,27.91
2022-07-27T15:05:50.266Z,28.01
2022-07-27T15:08:20.606Z,28.11
2022-07-27T15:10:48.747Z,28.18
2022-07-27T15:13:15.797Z,28.24
2022-07-27T15:15:42.414Z,28.31
2022-07-27T15:18:09.039Z,28.36
2022-07-27T15:20:35.915Z,28.44
2022-07-27T15:23:06.639Z,28.52
2022-07-27T15:25:33.828Z,28.56
2022-07-27T15:28:01.090Z,28.62
2022-07-27T15:30:27.660Z,28.67
2022-07-27T15:32:54.314Z,28.71
2022-07-27T15:35:20.840Z,28.69
2022-07-27T15:37:53.909Z,28.66
2022-07-27T15:40:37.134Z,28.57
2022-07-27T15:43:13.009Z,28.46
2022-07-27T15:45:41.279Z,28.37
2022-07-27T15:48:09.594Z,28.27
2022-07-27T15:50:37.539Z,28.19
2022-07-27T15:53:05.627Z,28.12
2022-07-27T15:55:32.874Z,28.08
2022-07-27T15:57:59.479Z,28.05
2022-07-27T16:00:26.275Z,28.03
2022-07-27T16:02:55.565Z,28.02
2022-07-27T16:05:23.893Z,28.01
2022-07-27T16:07:50.608Z,28.03
2022-07-27T16:10:17.140Z,28.05
2022-07-27T16:12:43.694Z,28.09
2022-07-27T16:15:11.011Z,28.13
2022-07-27T16:17:37.592Z,28.17
2022-07-27T16:20:04.766Z,28.23
2022-07-27T16:22:33.412Z,28.25
2022-07-27T16:25:00.331Z,28.25
2022-07-27T16:27:28.578Z,28.23
2022-07-27T16:29:55.136Z,28.22
2022-07-27T16:32:21.676Z,28.22
2022-07-27T16:34:48.150Z,28.23
2022-07-27T16:37:14.684Z,28.24
2022-07-27T16:39:41.325Z,28.27
2022-07-27T16:42:07.838Z,28.27
2022-07-27T16:44:36.065Z,28.28
2022-07-27T16:47:05.552Z,28.29
2022-07-27T16:49:33.647Z,28.28
2022-07-27T16:52:04.100Z,28.26
2022-07-27T16:54:34.139Z,28.21
2022-07-27T16:57:03.776Z,28.15
2022-07-27T16:59:30.394Z,28.10
2022-07-27T17:01:56.869Z,28.05
2022-07-27T17:04:24.046Z,28.01
2022-07-27T17:06:50.597Z,27.95
2022-07-27T17:09:18.173Z,27.86
2022-07-27T17:11:44.685Z,27.77
2022-07-27T17:14:14.437Z,27.69
2022-07-27T17:16:41.378Z,27.59
2022-07-27T17:19:07.926Z,27.49
2022-07-27T17:21:34.465Z,27.40
2022-07-27T17:24:01.004Z,27.32
2022-07-27T17:26:27.548Z,27.25
2022-07-27T17:28:54.104Z,27.18
2022-07-27T17:31:21.715Z,27.13
2022-07-27T17:33:48.443Z,27.10
2022-07-27T17:36:15.742Z,27.06
2022-07-27T17:38:47.164Z,27.01
2022-07-27T17:41:14.824Z,26.99
2022-07-27T17:43:41.739Z,26.95
2022-07-27T17:46:10.254Z,26.90
2022-07-27T17:48:37.816Z,26.89
2022-07-27T17:51:05.802Z,26.86
2022-07-27T17:53:32.594Z,26.80
2022-07-27T17:55:59.171Z,26.74
2022-07-27T17:58:29.942Z,26.68
2022-07-27T18:00:57.133Z,26.63
2022-07-27T18:03:23.651Z,26.59
2022-07-27T18:05:50.240Z,26.58
2022-07-27T18:08:16.772Z,26.55
2022-07-27T18:10:43.306Z,26.54
2022-07-27T18:13:09.889Z,26.52
2022-07-27T18:15:48.452Z,26.51
2022-07-27T18:18:16.019Z,26.49
2022-07-27T18:20:44.221Z,26.50
2022-07-27T18:23:10.776Z,26.50
2022-07-27T18:25:37.323Z,26.45
2022-07-27T18:28:04.466Z,26.40
2022-07-27T18:30:30.977Z,26.34
2022-07-27T18:32:57.462Z,26.29
2022-07-27T18:35:24.153Z,26.23
2022-07-27T18:37:50.905Z,26.17
2022-07-27T18:40:17.477Z,26.11
2022-07-27T18:42:44.455Z,26.05
2022-07-27T18:45:11.246Z,26.01
2022-07-27T18:47:38.386Z,25.95
2022-07-27T18:50:07.022Z,25.91
2022-07-27T18:52:34.516Z,25.86
2022-07-27T18:55:01.185Z,25.80
2022-07-27T18:57:28.646Z,25.75
2022-07-27T18:59:55.141Z,25.71
2022-07-27T19:02:23.423Z,25.67
2022-07-27T19:04:54.003Z,25.63
2022-07-27T19:07:21.756Z,25.59
2022-07-27T19:09:50.545Z,25.56
2022-07-27T19:12:17.131Z,25.51
2022-07-27T19:14:43.784Z,25.50
2022-07-27T19:17:16.639Z,25.45
2022-07-27T19:19:43.229Z,25.42
2022-07-27T19:22:09.786Z,25.36
2022-07-27T19:24:36.343Z,25.33
2022-07-27T19:27:03.511Z,25.28
2022-07-27T19:29:30.138Z,25.24
2022-07-27T19:31:56.629Z,25.18
2022-07-27T19:34:23.197Z,25.12
2022-07-27T19:36:49.898Z,25.07
2022-07-27T19:39:16.641Z,25.02
2022-07-27T19:41:43.187Z,24.97
2022-07-27T19:44:09.996Z,24.91
2022-07-27T19:46:37.342Z,24.87
2022-07-27T19:49:04.195Z,24.83
2022-07-27T19:51:30.832Z,24.80
2022-07-27T19:53:57.406Z,24.76
2022-07-27T19:56:23.912Z,24.74
2022-07-27T19:58:50.520Z,24.72
2022-07-27T20:01:17.139Z,24.71
2022-07-27T20:03:51.958Z,24.68
2022-07-27T20:06:19.221Z,24.65
2022-07-27T20:08:45.815Z,24.63
2022-07-27T20:11:12.410Z,24.58
2022-07-27T20:13:40.201Z,24.56
2022-07-27T20:16:06.780Z,24.52
2022-07-27T20:18:35.259Z,24.50
2022-07-27T20:21:02.270Z,24.46
2022-07-27T20:23:29.184Z,24.43
2022-07-27T20:25:55.716Z,24.39
2022-07-27T20:28:22.238Z,24.35
2022-07-27T20:30:48.830Z,24.30
2022-07-27T20:33:19.522Z,24.25
2022-07-27T20:35:46.136Z,24.21
2022-07-27T20:38:12.828Z,24.18
2022-07-27T20:40:39.398Z,24.13
2022-07-27T20:43:05.913Z,24.10
2022-07-27T20:45:32.496Z,24.05
2022-07-27T20:47:59.066Z,24.00
2022-07-27T20:50:25.643Z,23.95
2022-07-27T20:52:52.166Z,23.90
2022-07-27T20:55:18.692Z,23.87
2022-07-27T20:57:45.245Z,23.84
2022-07-27T21:00:12.535Z,23.82
2022-07-27T21:02:39.195Z,23.78
2022-07-27T21:05:07.586Z,23.75
2022-07-27T21:07:34.356Z,23.72
2022-07-27T21:10:00.952Z,23.68
2022-07-27T21:12:27.722Z,23.67
2022-07-27T21:14:54.293Z,23.66
2022-07-27T21:17:20.803Z,23.64
2022-07-27T21:19:47.418Z,23.64
2022-07-27T21:22:13.936Z,23.60
2022-07-27T21:24:40.491Z,23.55
2022-07-27T21:27:07.105Z,23.51
2022-07-27T21:29:35.425Z,23.48
2022-07-27T21:32:01.902Z,23.43
2022-07-27T21:34:29.186Z,23.40
2022-07-27T21:36:55.763Z,23.36
2022-07-27T21:39:22.251Z,23.31
2022-07-27T21:41:48.778Z,23.26
2022-07-27T21:44:15.751Z,23.21
2022-07-27T21:46:42.895Z,23.17
2022-07-27T21:49:10.341Z,23.12
2022-07-27T21:51:37.078Z,23.05
2022-07-27T21:54:03.737Z,22.98
2022-07-27T21:56:30.318Z,22.89
2022-07-27T21:58:56.940Z,22.83
2022-07-27T22:01:23.567Z,22.75
2022-07-27T22:03:50.259Z,22.71
2022-07-27T22:06:17.636Z,22.66
2022-07-27T22:08:44.377Z,22.61
2022-07-27T22:11:10.895Z,22.55
2022-07-27T22:13:37.807Z,22.51
2022-07-27T22:16:05.071Z,22.45
2022-07-27T22:18:31.604Z,22.40
2022-07-27T22:20:58.646Z,22.36
2022-07-27T22:23:25.323Z,22.30
2022-07-27T22:25:51.999Z,22.27
2022-07-27T22:28:18.543Z,22.24
2022-07-27T22:31:20.558Z,22.20
2022-07-27T22:33:32.759Z,22.17
2022-07-27T22:35:59.231Z,22.12
2022-07-27T22:38:25.722Z,22.09
2022-07-27T22:40:55.554Z,22.06
2022-07-27T22:43:22.523Z,22.02
2022-07-27T22:45:49.944Z,21.99
2022-07-27T22:48:16.570Z,21.95
2022-07-27T22:50:45.493Z,21.91
2022-07-27T22:53:12.152Z,21.90
2022-07-27T22:55:38.922Z,21.89
2022-07-27T22:58:05.534Z,21.87
2022-07-27T23:00:32.244Z,21.86
2022-07-27T23:02:58.946Z,21.85
2022-07-27T23:05:25.563Z,21.82
2022-07-27T23:07:52.439Z,21.80
2022-07-27T23:10:37.478Z,21.77
2022-07-27T23:13:04.010Z,21.77
2022-07-27T23:15:31.423Z,21.77
2022-07-27T23:17:57.999Z,21.77
2022-07-27T23:20:24.512Z,21.75
2022-07-27T23:22:51.101Z,21.77
2022-07-27T23:25:17.568Z,21.77
2022-07-27T23:27:44.076Z,21.75
2022-07-27T23:30:10.947Z,21.76
2022-07-27T23:32:37.427Z,21.76
2022-07-27T23:35:04.414Z,21.76
2022-07-27T23:37:30.963Z,21.76
2022-07-27T23:39:57.476Z,21.76
2022-07-27T23:42:24.067Z,21.75
2022-07-27T23:44:50.571Z,21.75
2022-07-27T23:47:18.779Z,21.74
2022-07-27T23:49:45.298Z,21.73
2022-07-27T23:52:11.813Z,21.73
2022-07-27T23:54:38.391Z,21.71
2022-07-27T23:57:05.199Z,21.69
2022-07-27T23:59:31.770Z,21.66
